Map

Track Data

SID SEASON NUMBER BASIN SUBBASIN NAME ISO_TIME NATURE LAT LON WMO_WIND WMO_PRES WMO_AGENCY TRACK_TYPE DIST2LAND LANDFALL IFLAG USA_AGENCY USA_ATCF_ID USA_LAT USA_LON USA_RECORD USA_STATUS USA_WIND USA_PRES USA_SSHS USA_R34_NE USA_R34_SE USA_R34_SW USA_R34_NW USA_R50_NE USA_R50_SE USA_R50_SW USA_R50_NW USA_R64_NE USA_R64_SE USA_R64_SW USA_R64_NW USA_POCI USA_ROCI USA_RMW USA_EYE TOKYO_LAT TOKYO_LON TOKYO_GRADE TOKYO_WIND TOKYO_PRES TOKYO_R50_DIR TOKYO_R50_LONG TOKYO_R50_SHORT TOKYO_R30_DIR TOKYO_R30_LONG TOKYO_R30_SHORT TOKYO_LAND CMA_LAT CMA_LON CMA_CAT CMA_WIND CMA_PRES HKO_LAT HKO_LON HKO_CAT HKO_WIND HKO_PRES NEWDELHI_LAT NEWDELHI_LON NEWDELHI_GRADE NEWDELHI_WIND NEWDELHI_PRES NEWDELHI_CI NEWDELHI_DP NEWDELHI_POCI REUNION_LAT REUNION_LON REUNION_TYPE REUNION_WIND REUNION_PRES REUNION_TNUM REUNION_CI REUNION_RMW REUNION_R34_NE REUNION_R34_SE REUNION_R34_SW REUNION_R34_NW REUNION_R50_NE REUNION_R50_SE REUNION_R50_SW REUNION_R50_NW REUNION_R64_NE REUNION_R64_SE REUNION_R64_SW REUNION_R64_NW BOM_LAT BOM_LON BOM_TYPE BOM_WIND BOM_PRES BOM_TNUM BOM_CI BOM_RMW BOM_R34_NE BOM_R34_SE BOM_R34_SW BOM_R34_NW BOM_R50_NE BOM_R50_SE BOM_R50_SW BOM_R50_NW BOM_R64_NE BOM_R64_SE BOM_R64_SW BOM_R64_NW BOM_ROCI BOM_POCI BOM_EYE BOM_POS_METHOD BOM_PRES_METHOD NADI_LAT NADI_LON NADI_CAT NADI_WIND NADI_PRES WELLINGTON_LAT WELLINGTON_LON WELLINGTON_WIND WELLINGTON_PRES DS824_LAT DS824_LON DS824_STAGE DS824_WIND DS824_PRES TD9636_LAT TD9636_LON TD9636_STAGE TD9636_WIND TD9636_PRES TD9635_LAT TD9635_LON TD9635_WIND TD9635_PRES TD9635_ROCI NEUMANN_LAT NEUMANN_LON NEUMANN_CLASS NEUMANN_WIND NEUMANN_PRES MLC_LAT MLC_LON MLC_CLASS MLC_WIND MLC_PRES USA_GUST BOM_GUST BOM_GUST_PER REUNION_GUST REUNION_GUST_PER USA_SEAHGT USA_SEARAD_NE USA_SEARAD_SE USA_SEARAD_SW USA_SEARAD_NW STORM_SPEED STORM_DIR
1970211N17255 1970 75 EP MM JOYCE 1970-07-29 12:00:00 TS 17.1000 -105.300 25 hurdat_epa main 233 233 O________OO___ hurdat_epa EP101970 17.1000 -105.300 TD 25 -1 17.1000 -105.300 TC 25 17.1000 -105.300 1 7 286
1970211N17255 1970 75 EP MM JOYCE 1970-07-29 15:00:00 TS 17.1949 -105.648 main 239 237 P________PP___ EP101970 17.1952 -105.655 TD 30 -1 17.1952 -105.655 TC 30 17.1938 -105.619 1 7 287
1970211N17255 1970 75 EP MM JOYCE 1970-07-29 18:00:00 TS 17.3000 -105.990 35 hurdat_epa main 247 243 O________OP___ hurdat_epa EP101970 17.3000 -106.000 TS 35 0 17.3000 -106.000 TC 35 17.3000 -105.950 1 7 290
1970211N17255 1970 75 EP MM JOYCE 1970-07-29 21:00:00 TS 17.4281 -106.329 main 256 254 P________PP___ EP101970 17.4274 -106.335 TS 35 0 17.4274 -106.335 TC 35 17.4312 -106.307 1 7 294
1970211N17255 1970 75 EP MM JOYCE 1970-07-30 00:00:00 TS 17.6000 -106.700 35 hurdat_epa main 268 268 O________OO___ hurdat_epa EP101970 17.6000 -106.700 TS 35 0 17.6000 -106.700 TC 35 17.6000 -106.700 2 9 298
1970211N17255 1970 75 EP MM JOYCE 1970-07-30 03:00:00 TS 17.8365 -107.135 main 284 283 P________PP___ EP101970 17.8425 -107.135 TS 35 0 17.8425 -107.135 TC 35 17.8127 -107.137 2 10 300
1970211N17255 1970 75 EP MM JOYCE 1970-07-30 06:00:00 TS 18.0901 -107.600 35 hurdat_epa main 300 300 O________OP___ hurdat_epa EP101970 18.1000 -107.600 TS 35 0 18.1000 -107.600 TC 35 18.0504 -107.599 2 10 298
1970211N17255 1970 75 EP MM JOYCE 1970-07-30 09:00:00 TS 18.3095 -108.064 main 332 332 P________PP___ EP101970 18.3150 -108.065 TS 35 0 18.3150 -108.065 TC 35 18.2877 -108.062 2 9 296
1970211N17255 1970 75 EP MM JOYCE 1970-07-30 12:00:00 TS 18.5000 -108.500 35 hurdat_epa main 356 356 O________OO___ hurdat_epa EP101970 18.5000 -108.500 TS 35 0 18.5000 -108.500 TC 35 18.5000 -108.500 2 8 295
1970211N17255 1970 75 EP MM JOYCE 1970-07-30 15:00:00 TS 18.6633 -108.866 main 385 385 P________PP___ EP101970 18.6648 -108.865 TS 37 0 18.6648 -108.865 TC 37 18.6572 -108.871 2 7 294
1970211N17255 1970 75 EP MM JOYCE 1970-07-30 18:00:00 TS 18.7973 -109.203 40 hurdat_epa main 407 407 O________OP___ hurdat_epa EP101970 18.8000 -109.200 TS 40 0 18.8000 -109.200 TC 40 18.7867 -109.216 2 7 291
1970211N17255 1970 75 EP MM JOYCE 1970-07-30 21:00:00 TS 18.9055 -109.545 main 431 431 P________PP___ EP101970 18.9074 -109.543 TS 42 0 18.9074 -109.543 TC 42 18.8979 -109.552 2 7 287
1970211N17255 1970 75 EP MM JOYCE 1970-07-31 00:00:00 TS 19.0000 -109.900 45 hurdat_epa main 436 425 O________OO___ hurdat_epa EP101970 19.0000 -109.900 TS 45 0 19.0000 -109.900 TC 45 19.0000 -109.900 2 7 286
1970211N17255 1970 75 EP MM JOYCE 1970-07-31 03:00:00 TS 19.1022 -110.292 main 426 416 P________PP___ EP101970 19.1000 -110.293 TS 45 0 19.1000 -110.293 TC 45 19.1112 -110.290 2 8 285
1970211N17255 1970 75 EP MM JOYCE 1970-07-31 06:00:00 TS 19.2030 -110.699 45 hurdat_epa main 420 413 O________OP___ hurdat_epa EP101970 19.2000 -110.700 TS 45 0 19.2000 -110.700 TC 45 19.2149 -110.693 2 8 285
1970211N17255 1970 75 EP MM JOYCE 1970-07-31 09:00:00 TS 19.3022 -111.106 main 418 413 P________PP___ EP101970 19.3000 -111.108 TS 45 0 19.3000 -111.108 TC 45 19.3112 -111.099 2 8 285
1970211N17255 1970 75 EP MM JOYCE 1970-07-31 12:00:00 TS 19.4000 -111.500 45 hurdat_epa main 421 419 O________OO___ hurdat_epa EP101970 19.4000 -111.500 TS 45 0 19.4000 -111.500 TC 45 19.4000 -111.500 2 7 286
1970211N17255 1970 75 EP MM JOYCE 1970-07-31 15:00:00 TS 19.5030 -111.856 main 428 423 P________PP___ EP101970 19.5073 -111.850 TS 47 0 19.5073 -111.850 TC 47 19.4859 -111.878 2 7 286
1970211N17255 1970 75 EP MM JOYCE 1970-07-31 18:00:00 TS 19.5929 -112.210 50 hurdat_epa main 433 433 O________OP___ hurdat_epa EP101970 19.6000 -112.200 TS 50 0 19.6000 -112.200 TC 50 19.5645 -112.250 2 7 282
1970211N17255 1970 75 EP MM JOYCE 1970-07-31 21:00:00 TS 19.6531 -112.598 main 447 447 P________PP___ EP101970 19.6575 -112.593 TS 50 0 19.6575 -112.593 TC 50 19.6359 -112.622 2 8 278
1970211N17255 1970 75 EP MM JOYCE 1970-08-01 00:00:00 TS 19.7000 -113.000 50 hurdat_epa main 473 473 O________OO___ hurdat_epa EP101970 19.7000 -113.000 TS 50 0 19.7000 -113.000 TC 50 19.7000 -113.000 2 8 278
1970211N17255 1970 75 EP MM JOYCE 1970-08-01 03:00:00 TS 19.7529 -113.398 main 494 494 P________PP___ EP101970 19.7499 -113.400 TS 47 0 19.7499 -113.400 TC 47 19.7651 -113.389 2 8 278
1970211N17255 1970 75 EP MM JOYCE 1970-08-01 06:00:00 TS 19.8044 -113.797 45 hurdat_epa main 524 524 O________OP___ hurdat_epa EP101970 19.8000 -113.800 TS 45 0 19.8000 -113.800 TC 45 19.8221 -113.785 2 8 278
1970211N17255 1970 75 EP MM JOYCE 1970-08-01 09:00:00 TS 19.8595 -114.192 main 549 549 P________PP___ EP101970 19.8574 -114.192 TS 42 0 19.8574 -114.192 TC 42 19.8681 -114.189 2 8 277
1970211N17255 1970 75 EP MM JOYCE 1970-08-01 12:00:00 TS 19.9000 -114.600 40 hurdat_epa main 582 582 O________OO___ hurdat_epa EP101970 19.9000 -114.600 TS 40 0 19.9000 -114.600 TC 40 19.9000 -114.600 6 8 274
1970211N17255 1970 75 EP MM JOYCE 1970-08-01 15:00:00 TS 19.9097 -115.049 main 610 610 P________PP___ EP101970 19.9075 -115.050 TS 35 0 19.9075 -115.050 TC 35 19.9186 -115.042 6 8 270
1970211N17255 1970 75 EP MM JOYCE 1970-08-01 18:00:00 TS 19.9046 -115.498 30 hurdat_epa main 639 639 O________OP___ hurdat_epa EP101970 19.9000 -115.500 TD 30 -1 19.9000 -115.500 TC 30 19.9228 -115.488 6 8 270
1970211N17255 1970 75 EP MM JOYCE 1970-08-01 21:00:00 TS 19.9091 -115.927 main 663 663 P________PP___ EP101970 19.9075 -115.930 TD 30 -1 19.9075 -115.930 TC 30 19.9155 -115.914 6 8 270
1970211N17255 1970 75 EP MM JOYCE 1970-08-02 00:00:00 TS 19.9000 -116.300 30 hurdat_epa main 688 688 O________OO___ hurdat_epa EP101970 19.9000 -116.300 TD 30 -1 19.9000 -116.300 TC 30 19.9000 -116.300 6 6 265
1970211N17255 1970 75 EP MM JOYCE 1970-08-02 03:00:00 TS 19.8562 -116.575 main 708 708 P________PP___ EP101970 19.8498 -116.565 TD 30 -1 19.8498 -116.565 TC 30 19.8816 -116.614 6 5 260
1970211N17255 1970 75 EP MM JOYCE 1970-08-02 06:00:00 TS 19.8114 -116.818 30 hurdat_epa main 730 730 O________OP___ hurdat_epa EP101970 19.8000 -116.800 TD 30 -1 19.8000 -116.800 TC 30 19.8568 -116.888 6 5 264
1970211N17255 1970 75 EP MM JOYCE 1970-08-02 09:00:00 TS 19.7997 -117.102 main 751 751 P________PP___ EP101970 19.7925 -117.092 TD 27 -1 19.7925 -117.092 TC 27 19.8286 -117.142 6 5 269
1970211N17255 1970 75 EP MM JOYCE 1970-08-02 12:00:00 TS 19.8000 -117.400 25 hurdat_epa main 772 772 O________OO___ hurdat_epa EP101970 19.8000 -117.400 TD 25 -1 19.8000 -117.400 TC 25 19.8000 -117.400 6 6 270
1970211N17255 1970 75 EP MM JOYCE 1970-08-02 15:00:00 TS 19.8010 -117.700 main 794 794 P________PP___ EP101970 19.8075 -117.700 TD 25 -1 19.8075 -117.700 TC 25 19.7750 -117.701 6 6 269
1970211N17255 1970 75 EP MM JOYCE 1970-08-02 18:00:00 TS 19.7900 -118.002 25 hurdat_epa main 817 817 O________OP___ hurdat_epa EP101970 19.8000 -118.000 TD 25 -1 19.8000 -118.000 TC 25 19.7500 -118.007 6 6 264
1970211N17255 1970 75 EP MM JOYCE 1970-08-02 21:00:00 TS 19.7450 -118.308 main 847 847 P________PP___ EP101970 19.7500 -118.308 TD 25 -1 19.7500 -118.308 TC 25 19.7250 -118.310 6 6 261
1970211N17255 1970 75 EP MM JOYCE 1970-08-03 00:00:00 TS 19.7000 -118.600 25 hurdat_epa main 870 870 O________OO___ hurdat_epa EP101970 19.7000 -118.600 TD 25 -1 19.7000 -118.600 TC 25 19.7000 -118.600 6 5 265
1970211N17255 1970 75 EP MM JOYCE 1970-08-03 03:00:00 TS 19.6957 -118.859 main 894 894 P________PP___ EP101970 19.6999 -118.857 TD 25 -1 19.6999 -118.857 TC 25 19.6789 -118.864 6 5 269
1970211N17255 1970 75 EP MM JOYCE 1970-08-03 06:00:00 TS 19.6914 -119.103 25 hurdat_epa main 910 910 O________OP___ hurdat_epa EP101970 19.7000 -119.100 TD 25 -1 19.7000 -119.100 TC 25 19.6572 -119.115 6 5 265
1970211N17255 1970 75 EP MM JOYCE 1970-08-03 09:00:00 TS 19.6524 -119.352 main 934 934 P________PP___ EP101970 19.6575 -119.350 TD 25 -1 19.6575 -119.350 TC 25 19.6320 -119.358 6 5 259
1970211N17255 1970 75 EP MM JOYCE 1970-08-03 12:00:00 TS 19.6000 -119.600 25 hurdat_epa main 957 957 O________OO___ hurdat_epa EP101970 19.6000 -119.600 TD 25 -1 19.6000 -119.600 TC 25 19.6000 -119.600 6 5 258
1970211N17255 1970 75 EP MM JOYCE 1970-08-03 15:00:00 TS 19.5538 -119.852 main 982 982 P________PP___ EP101970 19.5500 -119.850 TD 25 -1 19.5500 -119.850 TC 25 19.5693 -119.858 6 5 259
1970211N17255 1970 75 EP MM JOYCE 1970-08-03 18:00:00 TS 19.5060 -120.103 25 hurdat_epa main 1005 1005 O________OP___ hurdat_epa EP101970 19.5000 -120.100 TD 25 -1 19.5000 -120.100 TC 25 19.5300 -120.115 6 5 259
1970211N17255 1970 75 EP MM JOYCE 1970-08-03 21:00:00 TS 19.4611 -120.359 main 1030 1030 P________PP___ EP101970 19.4575 -120.357 TD 25 -1 19.4575 -120.357 TC 25 19.4756 -120.364 6 5 257
1970211N17255 1970 75 EP MM JOYCE 1970-08-04 00:00:00 TS 19.4000 -120.600 25 hurdat_epa main 1054 1054 O________OO___ hurdat_epa EP101970 19.4000 -120.600 TD 25 -1 19.4000 -120.600 TC 25 19.4000 -120.600 6 5 251
1970211N17255 1970 75 EP MM JOYCE 1970-08-04 03:00:00 TS 19.3118 -120.810 main 1078 1078 P________PP___ EP101970 19.3150 -120.807 TD 25 -1 19.3150 -120.807 TC 25 19.2991 -120.818 6 4 242
1970211N17255 1970 75 EP MM JOYCE 1970-08-04 06:00:00 TS 19.1955 -121.004 25 hurdat_epa main 1101 1101 O________OP___ hurdat_epa EP101970 19.2000 -121.000 TD 25 -1 19.2000 -121.000 TC 25 19.1776 -121.020 6 5 235
1970211N17255 1970 75 EP MM JOYCE 1970-08-04 09:00:00 TS 19.0545 -121.201 main 1125 1125 P________PP___ EP101970 19.0576 -121.198 TD 25 -1 19.0576 -121.198 TC 25 19.0423 -121.213 6 5 232
1970211N17255 1970 75 EP MM JOYCE 1970-08-04 12:00:00 TS 18.9000 -121.400 25 hurdat_epa main 1155 O________OO___ hurdat_epa EP101970 18.9000 -121.400 TD 25 -1 18.9000 -121.400 TC 25 18.9000 -121.400 6 5 231

About IBTrACS Database

This database is a web-friendly format of International Best Track Archive for Climate Stewardship (IBTrACS), a global best track data archive curated by NOAA dating back to 1842.

Updated: 2021-11-26